Seafalcon — 9HA2814 — position and weather

sailwx.info

Track history (hours):
 
Tides and Currents Weather Stations Pressure Air Temp Water Temp Dewpoint Dewpoint Depression Visibility Wind Speed Wind Dir Waves Ship Positions

Seafalcon

Last reported at 2016-Jul-12 22:33 UTC. Time now 2016-Jul-25 15:56 UTC.
Position N 01°14' E 103°60'.
Warning: this ship's position is 12 days out of date.

Length 250 m; draft 8.4 m.

Type: Tanker. MMSI: 256078000.

Date/timePositionNaut miles runAvg speedWind from/ knotsBaromVisibWave heightAir tempDewpointWater temp
2016-Jul-12 22:33N 01°14' E 103°60'6 5.1
2016-Jul-12 21:27N 01°16' E 103°54'0 0.0
2016-Jul-12 20:33N 01°16' E 103°54'0 0.0
2016-Jul-12 19:21N 01°16' E 103°54'0 0.1
2016-Jul-12 18:30N 01°16' E 103°54'0 0.0
2016-Jul-12 17:33N 01°16' E 103°54'0 0.0
2016-Jul-12 15:18N 01°16' E 103°54'0 0.1
2016-Jul-12 14:30N 01°16' E 103°54'0 0.1
2016-Jul-12 13:21N 01°16' E 103°54'0 0.0
2016-Jul-12 12:21N 01°16' E 103°54'0 0.0
2016-Jul-12 11:24N 01°16' E 103°54'0 0.1
2016-Jul-12 10:30N 01°16' E 103°54'0 0.0
2016-Jul-12 06:27N 01°16' E 103°54'0 0.1
2016-Jul-12 05:27N 01°16' E 103°54'0 0.1
2016-Jul-12 04:33N 01°16' E 103°54'0 0.0
2016-Jul-12 03:27N 01°16' E 103°54'0 0.0
2016-Jul-12 02:33N 01°16' E 103°54'0 0.0
2016-Jul-12 01:24N 01°16' E 103°54'0 0.5
2016-Jul-12 00:33N 01°16' E 103°55'5 4.9
2016-Jul-11 23:33N 01°16' E 103°59'3 3.3
2016-Jul-11 22:33N 01°16' E 104°03'8 8.1
2016-Jul-11 21:31N 01°17' E 104°11'  
Track history (hours):
 
Tides and Currents Weather Stations Pressure Air Temp Water Temp Dewpoint Dewpoint Depression Visibility Wind Speed Wind Dir Waves Ship Positions

Seafalcon

Last reported at 2016-Jul-12 22:33 UTC. Time now 2016-Jul-25 15:56 UTC.
Position N 01°14' E 103°60'.
Warning: this ship's position is 12 days out of date.

Length 250 m; draft 8.4 m.

Type: Tanker. MMSI: 256078000.

Date/timePositionNaut miles runAvg speedWind from/ knotsBaromVisibWave heightAir tempDewpointWater temp
2016-Jul-12 22:33N 01°14' E 103°60'6 5.1
2016-Jul-12 21:27N 01°16' E 103°54'0 0.0
2016-Jul-12 20:33N 01°16' E 103°54'0 0.0
2016-Jul-12 19:21N 01°16' E 103°54'0 0.1
2016-Jul-12 18:30N 01°16' E 103°54'0 0.0
2016-Jul-12 17:33N 01°16' E 103°54'0 0.0
2016-Jul-12 15:18N 01°16' E 103°54'0 0.1
2016-Jul-12 14:30N 01°16' E 103°54'0 0.1
2016-Jul-12 13:21N 01°16' E 103°54'0 0.0
2016-Jul-12 12:21N 01°16' E 103°54'0 0.0
2016-Jul-12 11:24N 01°16' E 103°54'0 0.1
2016-Jul-12 10:30N 01°16' E 103°54'0 0.0
2016-Jul-12 06:27N 01°16' E 103°54'0 0.1
2016-Jul-12 05:27N 01°16' E 103°54'0 0.1
2016-Jul-12 04:33N 01°16' E 103°54'0 0.0
2016-Jul-12 03:27N 01°16' E 103°54'0 0.0
2016-Jul-12 02:33N 01°16' E 103°54'0 0.0
2016-Jul-12 01:24N 01°16' E 103°54'0 0.5
2016-Jul-12 00:33N 01°16' E 103°55'5 4.9
2016-Jul-11 23:33N 01°16' E 103°59'3 3.3
2016-Jul-11 22:33N 01°16' E 104°03'8 8.1
2016-Jul-11 21:31N 01°17' E 104°11'  

Dump ship's entire track history